aviador You're here:

KSMX Decoded Metar

SANTA MARIA in CA, USA
Report Time2017-06-27 21:51:00
UTC Time2017-06-27 22:35:23
Flight Rules vfr VFR
Wind300° at 12 kt
W.Decomp.*RWY 30: 11.6 kt HW 2.9 kt LCW
RWY 20: 0.8 kt HW 12.0 kt RCW
W.Rank300° ranks 1
Current wind is above 300° avg. (10.1)
Visibility9999 m
Phenomena:N/A
Clouds:N/A
Expected CloudBase > 3,200 ft AGL from Temp-Dew spread
CeilingNone
Temp21°C (ISA +6)
Dew Point13°C (60% RH)
AAT17.6°C
QNH1014 hPa
Density Alt1,168 ft
Elevation243 ft
Report Wrong Elevation
Raw Report
METAR KSMX 272151Z 30012KT 10SM CLR 21/13 A2995 RMK AO2 SLP142 T02060133
$=

Extra information for KSMX:More info

Metar Taf Metar & Taf Last 4 Metars F.Rules Stats Wind Profile Meteogram Temp Stats Airport Information Weather charts Add Link Nearby VenuesMetar ALERT Operation Metar Decoded Social comments

AIRNAV info for KSMX